Time;durP1;ratioP1;P1;durP2;ratioP2;P2;SDS_P1;SDS_P2;PMS_P1;PMS_P2;Temp;Humidity;BMP_temperature;BMP_pressure;BME280_temperature;BME280_humidity;BME280_pressure;Samples;Min_cycle;Max_cycle;Signal;HPM_P1;HPM_P2
2022/09/06 00:00:50;;;;;;;;;8.75;8.75;;;;;-146.80;100.00;64830.25;5117753;27;45662;-74
2022/09/06 00:03:15;;;;;;;;;8.50;8.50;;;;;-146.80;100.00;64830.25;5117306;27;46566;-75
2022/09/06 00:05:42;;;;;;;;;7.00;7.00;;;;;-146.80;100.00;64830.25;5117869;27;45508;-77
2022/09/06 00:08:08;;;;;;;;;7.00;7.00;;;;;-146.80;100.00;64830.25;5118466;27;45295;-77
2022/09/06 00:10:33;;;;;;;;;8.50;8.50;;;;;-146.80;100.00;64830.25;5120043;27;45242;-76
2022/09/06 00:13:01;;;;;;;;;7.25;7.00;;;;;-146.80;100.00;64830.25;5117471;27;46197;-78
2022/09/06 00:15:27;;;;;;;;;7.00;7.00;;;;;-146.80;100.00;64830.25;5117203;27;45388;-77
2022/09/06 00:17:52;;;;;;;;;9.00;9.00;;;;;-146.80;100.00;64830.25;5098384;27;45374;-76
2022/09/06 00:20:18;;;;;;;;;6.75;6.75;;;;;-146.80;100.00;64830.25;5099429;27;45531;-76
2022/09/06 00:22:43;;;;;;;;;9.50;9.50;;;;;-146.80;100.00;64830.25;5118680;27;45558;-75
2022/09/06 00:25:09;;;;;;;;;8.25;8.25;;;;;-146.80;100.00;64830.25;5118117;27;45273;-78
2022/09/06 00:27:34;;;;;;;;;9.00;9.00;;;;;-146.80;100.00;64830.25;5120047;27;45378;-78
2022/09/06 00:30:00;;;;;;;;;7.75;7.75;;;;;-146.80;100.00;64830.25;5126922;27;45409;-76
2022/09/06 00:32:25;;;;;;;;;11.25;9.75;;;;;-146.80;100.00;64830.25;5123391;27;46110;-74
2022/09/06 00:34:51;;;;;;;;;17.00;17.00;;;;;-146.80;100.00;64830.25;5121071;27;45428;-78
2022/09/06 00:37:16;;;;;;;;;11.00;11.00;;;;;-146.80;100.00;64830.25;5117381;27;45476;-76
2022/09/06 00:39:41;;;;;;;;;8.50;8.50;;;;;-146.80;100.00;64830.25;5099248;27;45475;-77
2022/09/06 00:42:11;;;;;;;;;10.00;9.75;;;;;-146.80;100.00;64830.25;5116418;27;46487;-76
2022/09/06 00:44:37;;;;;;;;;9.00;9.00;;;;;-146.80;100.00;64830.25;5115440;27;45256;-76
2022/09/06 00:47:04;;;;;;;;;9.75;9.75;;;;;-146.80;100.00;64830.25;5116667;27;45445;-77
2022/09/06 00:49:45;;;;;;;;;10.25;10.25;;;;;-146.80;100.00;64830.25;5116574;27;45398;-76
2022/09/06 00:52:13;;;;;;;;;8.50;8.50;;;;;-146.80;100.00;64830.25;5116595;27;46284;-75
2022/09/06 00:54:40;;;;;;;;;7.50;7.50;;;;;-146.80;100.00;64830.25;5116165;27;45459;-76
2022/09/06 00:57:06;;;;;;;;;7.50;7.50;;;;;-146.80;100.00;64830.25;5097897;27;45498;-76
2022/09/06 00:59:34;;;;;;;;;8.25;8.25;;;;;-146.80;100.00;64830.25;5116429;27;45492;-75
2022/09/06 01:02:00;;;;;;;;;9.00;9.00;;;;;-146.80;100.00;64830.25;5117236;27;45430;-75
2022/09/06 01:04:26;;;;;;;;;7.75;7.75;;;;;-146.80;100.00;64830.25;5117684;27;45367;-77
2022/09/06 01:07:10;;;;;;;;;8.00;8.00;;;;;-146.80;100.00;64830.25;5117532;27;45254;-74
2022/09/06 01:09:42;;;;;;;;;8.00;8.00;;;;;-146.80;100.00;64830.25;5117702;27;45487;-77
2022/09/06 01:12:20;;;;;;;;;9.75;9.75;;;;;-146.80;100.00;64830.25;5098138;27;45421;-76
2022/09/06 01:14:48;;;;;;;;;8.00;8.00;;;;;-146.80;100.00;64830.25;5117174;27;45429;-76
2022/09/06 01:17:28;;;;;;;;;7.50;7.50;;;;;-146.80;100.00;64830.25;5097747;27;45394;-77
2022/09/06 01:20:18;;;;;;;;;7.50;7.50;;;;;-146.80;100.00;64830.25;5117932;27;45409;-77
2022/09/06 01:22:59;;;;;;;;;8.50;8.50;;;;;-146.80;100.00;64830.25;5099225;27;47485;-79
2022/09/06 01:25:38;;;;;;;;;8.50;8.50;;;;;-146.80;100.00;64830.25;5118299;27;45266;-75
2022/09/06 01:28:09;;;;;;;;;7.75;7.75;;;;;-146.80;100.00;64830.25;5117738;27;45449;-74
2022/09/06 01:30:40;;;;;;;;;9.00;9.00;;;;;-146.80;100.00;64830.25;5117436;27;45555;-76
2022/09/06 01:33:37;;;;;;;;;9.25;9.25;;;;;-146.80;100.00;64830.25;5117350;27;46129;-77
2022/09/06 01:36:07;;;;;;;;;9.00;9.00;;;;;-146.80;100.00;64830.25;5117273;27;45381;-76
2022/09/06 01:38:33;;;;;;;;;13.75;12.75;;;;;-146.80;100.00;64830.25;5116523;27;45454;-76
2022/09/06 01:40:59;;;;;;;;;8.75;8.75;;;;;-146.80;100.00;64830.25;5118297;27;45430;-76
2022/09/06 01:43:29;;;;;;;;;9.00;9.00;;;;;-146.80;100.00;64830.25;5116079;27;46658;-75
2022/09/06 01:46:18;;;;;;;;;11.00;11.00;;;;;-146.80;100.00;64830.25;5116544;27;45253;-77
2022/09/06 01:49:09;;;;;;;;;9.25;9.25;;;;;-146.80;100.00;64830.25;5117773;27;45340;-75
2022/09/06 01:52:06;;;;;;;;;9.50;9.50;;;;;-146.80;100.00;64830.25;5117973;27;45316;-75
2022/09/06 01:55:01;;;;;;;;;10.75;10.00;;;;;-146.80;100.00;64830.25;5116163;27;45281;-75
2022/09/06 01:57:53;;;;;;;;;9.75;9.75;;;;;-146.80;100.00;64830.25;5120232;27;45448;-76
2022/09/06 02:00:21;;;;;;;;;8.50;8.50;;;;;-146.80;100.00;64830.25;5119865;27;45260;-74
2022/09/06 02:02:52;;;;;;;;;8.25;8.25;;;;;-146.80;100.00;64830.25;5120558;27;45585;-75
2022/09/06 02:05:17;;;;;;;;;10.00;10.00;;;;;-146.80;100.00;64830.25;5123173;27;46475;-75
2022/09/06 02:07:45;;;;;;;;;8.50;8.50;;;;;-146.80;100.00;64830.25;5106631;27;45258;-77
2022/09/06 02:10:19;;;;;;;;;11.75;11.75;;;;;-146.80;100.00;64830.25;5120682;27;45353;-76
2022/09/06 02:12:50;;;;;;;;;11.75;11.75;;;;;-146.80;100.00;64830.25;5120183;27;45191;-77
2022/09/06 02:15:27;;;;;;;;;13.00;13.00;;;;;-146.80;100.00;64830.25;5102269;27;47047;-75
2022/09/06 02:17:59;;;;;;;;;7.25;7.25;;;;;-146.80;100.00;64830.25;5100896;27;45345;-77
2022/09/06 02:20:30;;;;;;;;;9.50;9.50;;;;;-146.80;100.00;64830.25;5119282;27;45400;-77
2022/09/06 02:23:00;;;;;;;;;10.50;10.50;;;;;-146.80;100.00;64830.25;5120336;27;45152;-77
2022/09/06 02:25:51;;;;;;;;;10.25;10.25;;;;;-146.80;100.00;64830.25;5100504;27;47117;-75
2022/09/06 02:28:17;;;;;;;;;12.00;12.00;;;;;-146.80;100.00;64830.25;5116195;27;45333;-75
2022/09/06 02:30:48;;;;;;;;;11.00;11.00;;;;;-146.80;100.00;64830.25;5118738;27;45407;-75
2022/09/06 02:33:27;;;;;;;;;10.75;10.75;;;;;-146.80;100.00;64830.25;5119649;27;45536;-77
2022/09/06 02:35:54;;;;;;;;;10.75;10.75;;;;;-146.80;100.00;64830.25;5100045;27;47223;-74
2022/09/06 02:38:25;;;;;;;;;11.50;11.50;;;;;-146.80;100.00;64830.25;5100119;27;45427;-77
2022/09/06 02:40:54;;;;;;;;;10.25;10.25;;;;;-146.80;100.00;64830.25;5118826;27;45279;-77
2022/09/06 02:43:24;;;;;;;;;11.75;11.75;;;;;-146.80;100.00;64830.25;5121120;27;45302;-76
2022/09/06 02:45:50;;;;;;;;;11.25;11.25;;;;;-146.80;100.00;64830.25;5118969;27;45489;-75
2022/09/06 02:48:16;;;;;;;;;10.75;10.75;;;;;-146.80;100.00;64830.25;5119568;27;45417;-75
2022/09/06 02:50:41;;;;;;;;;12.75;12.00;;;;;-146.80;100.00;64830.25;5123984;27;45329;-75
2022/09/06 02:53:14;;;;;;;;;11.00;11.00;;;;;-146.80;100.00;64830.25;5119520;27;45245;-77
2022/09/06 02:55:40;;;;;;;;;12.50;12.50;;;;;-146.80;100.00;64830.25;5099649;27;47588;-76
2022/09/06 02:58:07;;;;;;;;;15.00;15.00;;;;;-146.80;100.00;64830.25;5118165;27;45994;-78
2022/09/06 03:00:32;;;;;;;;;11.75;11.25;;;;;-146.80;100.00;64830.25;5118344;27;45417;-77
2022/09/06 03:02:58;;;;;;;;;13.00;13.00;;;;;-146.80;100.00;64830.25;5118179;27;45535;-76
2022/09/06 03:05:25;;;;;;;;;11.75;11.75;;;;;-146.80;100.00;64830.25;5118061;27;46320;-74
2022/09/06 03:07:51;;;;;;;;;10.50;10.50;;;;;-146.80;100.00;64830.25;5117325;27;45333;-75
2022/09/06 03:10:16;;;;;;;;;11.00;11.00;;;;;-146.80;100.00;64830.25;5118275;27;45342;-74
2022/09/06 03:12:43;;;;;;;;;12.75;12.75;;;;;-146.80;100.00;64830.25;5099726;27;45611;-75
2022/09/06 03:15:10;;;;;;;;;12.75;12.75;;;;;-146.80;100.00;64830.25;5118174;27;45294;-74
2022/09/06 03:17:36;;;;;;;;;11.25;11.25;;;;;-146.80;100.00;64830.25;5120474;27;45338;-75
2022/09/06 03:20:01;;;;;;;;;15.00;14.50;;;;;-146.80;100.00;64830.25;5123979;27;45215;-73
2022/09/06 03:22:26;;;;;;;;;12.00;12.00;;;;;-146.80;100.00;64830.25;5120282;27;45296;-76
2022/09/06 03:24:52;;;;;;;;;13.75;12.75;;;;;-146.80;100.00;64830.25;5118293;27;45299;-75
2022/09/06 03:27:17;;;;;;;;;12.00;12.00;;;;;-146.80;100.00;64830.25;5118281;27;45354;-77
2022/09/06 03:29:43;;;;;;;;;11.50;11.50;;;;;-146.80;100.00;64830.25;5118098;27;45333;-74
2022/09/06 03:32:08;;;;;;;;;14.00;14.00;;;;;-146.80;100.00;64830.25;5099405;27;45315;-75
2022/09/06 03:34:33;;;;;;;;;12.00;12.00;;;;;-146.80;100.00;64830.25;5117785;27;46228;-75
2022/09/06 03:36:59;;;;;;;;;14.25;14.25;;;;;-146.80;100.00;64830.25;5117772;27;45373;-75
2022/09/06 03:39:24;;;;;;;;;17.00;16.50;;;;;-146.80;100.00;64830.25;5099162;27;45469;-76
2022/09/06 03:41:49;;;;;;;;;14.50;14.50;;;;;-146.80;100.00;64830.25;5118211;27;45355;-75
2022/09/06 03:44:15;;;;;;;;;10.75;10.75;;;;;-146.80;100.00;64830.25;5118066;27;46245;-76
2022/09/06 03:46:40;;;;;;;;;14.00;14.00;;;;;-146.80;100.00;64830.25;5118007;27;45428;-76
2022/09/06 03:49:06;;;;;;;;;13.25;13.25;;;;;-146.80;100.00;64830.25;5117959;27;45277;-76
2022/09/06 03:51:32;;;;;;;;;13.00;13.00;;;;;-146.80;100.00;64830.25;5099449;27;45327;-78
2022/09/06 03:53:57;;;;;;;;;12.50;12.50;;;;;-146.80;100.00;64830.25;5117741;27;45396;-75
2022/09/06 03:56:22;;;;;;;;;12.25;12.25;;;;;-146.80;100.00;64830.25;5099682;27;45277;-77
2022/09/06 03:58:48;;;;;;;;;13.25;13.25;;;;;-146.80;100.00;64830.25;5118232;27;45362;-76
2022/09/06 04:01:13;;;;;;;;;13.50;13.50;;;;;-146.80;100.00;64830.25;5119668;27;45340;-77
2022/09/06 04:03:39;;;;;;;;;13.00;13.00;;;;;-146.80;100.00;64830.25;5118408;27;45575;-76
2022/09/06 04:06:05;;;;;;;;;12.00;12.00;;;;;-146.80;100.00;64830.25;5118592;27;45425;-75
2022/09/06 04:08:32;;;;;;;;;13.00;12.50;;;;;-146.80;100.00;64830.25;5117530;27;45191;-75
2022/09/06 04:10:58;;;;;;;;;16.50;16.50;;;;;-146.80;100.00;64830.25;5117361;27;45338;-75
2022/09/06 04:13:25;;;;;;;;;14.75;14.75;;;;;-146.80;100.00;64830.25;5117183;27;45578;-75
2022/09/06 04:15:51;;;;;;;;;11.75;11.75;;;;;-146.80;100.00;64830.25;5116764;27;45153;-75
2022/09/06 04:18:17;;;;;;;;;13.25;13.25;;;;;-146.80;100.00;64830.25;5117174;27;45281;-75
2022/09/06 04:20:46;;;;;;;;;12.50;12.50;;;;;-146.80;100.00;64830.25;5117120;27;45279;-75
2022/09/06 04:23:11;;;;;;;;;15.00;15.00;;;;;-146.80;100.00;64830.25;5117012;27;45878;-75
2022/09/06 04:25:37;;;;;;;;;17.75;17.75;;;;;-146.80;100.00;64830.25;5116757;27;45407;-76
2022/09/06 04:28:02;;;;;;;;;22.00;22.00;;;;;-146.80;100.00;64830.25;5116969;27;45351;-75
2022/09/06 04:30:27;;;;;;;;;17.75;17.75;;;;;-146.80;100.00;64830.25;5117242;27;45294;-75
2022/09/06 04:32:53;;;;;;;;;20.00;20.00;;;;;-146.80;100.00;64830.25;5116744;27;46753;-75
2022/09/06 04:35:18;;;;;;;;;23.25;22.25;;;;;-146.80;100.00;64830.25;5116424;27;53001;-74
2022/09/06 04:37:43;;;;;;;;;20.75;20.75;;;;;-146.80;100.00;64830.25;5117053;27;45365;-75
2022/09/06 04:40:09;;;;;;;;;19.00;19.00;;;;;-146.80;100.00;64830.25;5098353;27;45401;-77
2022/09/06 04:42:34;;;;;;;;;15.00;15.00;;;;;-146.80;100.00;64830.25;5097714;27;48196;-74
2022/09/06 04:45:00;;;;;;;;;17.00;17.00;;;;;-146.80;100.00;64830.25;5098342;27;45424;-75
2022/09/06 04:47:25;;;;;;;;;16.75;16.75;;;;;-146.80;100.00;64830.25;5116497;27;45313;-73
2022/09/06 04:49:51;;;;;;;;;18.00;18.00;;;;;-146.80;100.00;64830.25;5117655;27;45484;-74
2022/09/06 04:52:16;;;;;;;;;14.25;14.25;;;;;-146.80;100.00;64830.25;5116228;27;46670;-74
2022/09/06 04:54:42;;;;;;;;;16.50;16.50;;;;;-146.80;100.00;64830.25;5116292;27;45328;-74
2022/09/06 04:57:08;;;;;;;;;18.75;18.25;;;;;-146.80;100.00;64830.25;5116605;27;45490;-74
2022/09/06 04:59:33;;;;;;;;;15.75;15.75;;;;;-146.80;100.00;64830.25;5116913;27;45260;-75
2022/09/06 05:01:58;;;;;;;;;14.25;14.25;;;;;-146.80;100.00;64830.25;5116563;27;46279;-74
2022/09/06 05:04:24;;;;;;;;;12.75;12.75;;;;;-146.80;100.00;64830.25;5116501;27;45240;-75
2022/09/06 05:07:03;;;;;;;;;13.75;13.75;;;;;-146.80;100.00;64830.25;5116046;27;45225;-75
2022/09/06 05:09:29;;;;;;;;;17.25;17.25;;;;;-146.80;100.00;64830.25;5116476;27;45532;-75
2022/09/06 05:11:54;;;;;;;;;16.75;16.75;;;;;-146.80;100.00;64830.25;5098044;27;47029;-74
2022/09/06 05:14:20;;;;;;;;;17.00;17.00;;;;;-146.80;100.00;64830.25;5116511;27;45444;-75
2022/09/06 05:16:46;;;;;;;;;17.50;17.25;;;;;-146.80;100.00;64830.25;5116184;27;45434;-74
2022/09/06 05:19:11;;;;;;;;;17.25;17.25;;;;;-146.80;100.00;64830.25;5116011;27;45315;-73
2022/09/06 05:21:37;;;;;;;;;13.00;13.00;;;;;-146.80;100.00;64830.25;5115680;27;46266;-73
2022/09/06 05:24:02;;;;;;;;;15.50;14.75;;;;;-146.80;100.00;64830.25;5115818;27;45462;-75
2022/09/06 05:26:28;;;;;;;;;17.50;17.25;;;;;-146.80;100.00;64830.25;5116583;27;45253;-75
2022/09/06 05:28:53;;;;;;;;;16.50;16.50;;;;;-146.80;100.00;64830.25;5116069;27;45271;-75
2022/09/06 05:31:27;;;;;;;;;17.25;16.75;;;;;-146.80;100.00;64830.25;5117000;27;46475;-76
2022/09/06 05:33:53;;;;;;;;;16.50;16.00;;;;;-146.80;100.00;64830.25;5120335;27;45469;-75
2022/09/06 05:36:18;;;;;;;;;16.75;16.75;;;;;-146.80;100.00;64830.25;5120898;27;45429;-76
2022/09/06 05:38:44;;;;;;;;;14.75;14.75;;;;;-146.80;100.00;64830.25;5122105;27;45562;-77
2022/09/06 05:41:09;;;;;;;;;16.00;15.00;;;;;-146.80;100.00;64830.25;5120575;27;45385;-75
2022/09/06 05:43:35;;;;;;;;;16.50;16.50;;;;;-146.80;100.00;64830.25;5120604;27;45339;-74
2022/09/06 05:46:00;;;;;;;;;14.25;14.25;;;;;-146.80;100.00;64830.25;5120984;27;45334;-77
2022/09/06 05:48:25;;;;;;;;;16.25;16.25;;;;;-146.80;100.00;64830.25;5102186;27;45220;-77
2022/09/06 05:51:03;;;;;;;;;15.50;15.50;;;;;-146.80;100.00;64830.25;5119524;27;46637;-76
2022/09/06 05:53:37;;;;;;;;;15.00;15.00;;;;;-146.80;100.00;64830.25;5119653;27;45499;-75
2022/09/06 05:56:04;;;;;;;;;16.00;16.00;;;;;-146.80;100.00;64830.25;5100714;27;45350;-77
2022/09/06 05:58:30;;;;;;;;;13.50;13.50;;;;;-146.80;100.00;64830.25;5119499;27;45607;-76
2022/09/06 06:01:14;;;;;;;;;13.25;13.25;;;;;-146.80;100.00;64830.25;5118703;27;46063;-75
2022/09/06 06:03:39;;;;;;;;;15.50;15.50;;;;;-146.80;100.00;64830.25;5132512;27;45340;-71
2022/09/06 06:06:05;;;;;;;;;15.25;15.25;;;;;-146.80;100.00;64830.25;5125414;27;45308;-72
2022/09/06 06:08:30;;;;;;;;;14.75;14.75;;;;;-146.80;100.00;64830.25;5121725;27;45465;-75
2022/09/06 06:10:59;;;;;;;;;14.00;14.00;;;;;-146.80;100.00;64830.25;5129771;27;46448;-80
2022/09/06 06:13:27;;;;;;;;;15.00;15.00;;;;;-146.80;100.00;64830.25;5102213;27;46725;-80
2022/09/06 06:15:52;;;;;;;;;14.00;14.00;;;;;-146.80;100.00;64830.25;5119778;27;45498;-73
2022/09/06 06:18:18;;;;;;;;;11.75;11.75;;;;;-146.80;100.00;64830.25;5120779;27;45621;-73
2022/09/06 06:20:43;;;;;;;;;11.25;11.25;;;;;-146.80;100.00;64830.25;5133221;27;46228;-74
2022/09/06 06:23:08;;;;;;;;;17.50;17.00;;;;;-146.80;100.00;64830.25;5124113;27;45478;-75
2022/09/06 06:25:34;;;;;;;;;14.00;14.00;;;;;-146.80;100.00;64830.25;5127932;27;52895;-82
2022/09/06 06:27:59;;;;;;;;;12.25;12.25;;;;;-146.80;100.00;64830.25;5145103;27;45431;-75
2022/09/06 06:30:24;;;;;;;;;12.50;12.50;;;;;-146.80;100.00;64830.25;5139228;27;46203;-80
2022/09/06 06:32:50;;;;;;;;;9.50;9.50;;;;;-146.80;100.00;64830.25;5132202;27;45268;-80
2022/09/06 06:35:15;;;;;;;;;15.00;15.00;;;;;-146.80;100.00;64830.25;5124925;27;45330;-84
2022/09/06 06:37:43;;;;;;;;;11.75;11.75;;;;;-146.80;100.00;64830.25;5135422;27;45421;-76
2022/09/06 06:40:09;;;;;;;;;14.00;14.00;;;;;-146.80;100.00;64830.25;5127253;27;45662;-78
2022/09/06 06:42:34;;;;;;;;;14.75;14.75;;;;;-146.80;100.00;64830.25;5131542;27;45354;-76
2022/09/06 06:45:01;;;;;;;;;15.00;15.00;;;;;-146.80;100.00;64830.25;5141647;27;45413;-77
2022/09/06 06:47:26;;;;;;;;;14.00;14.00;;;;;-146.80;100.00;64830.25;5137924;27;45285;-75
2022/09/06 06:49:51;;;;;;;;;15.75;15.75;;;;;-146.80;100.00;64830.25;5140999;27;53501;-77
2022/09/06 06:52:17;;;;;;;;;12.25;12.25;;;;;-146.80;100.00;64830.25;5133476;27;45259;-76
2022/09/06 06:54:42;;;;;;;;;10.75;10.75;;;;;-146.80;100.00;64830.25;5106140;27;45324;-73
2022/09/06 06:57:08;;;;;;;;;12.00;12.00;;;;;-146.80;100.00;64830.25;5135349;27;45580;-72
2022/09/06 06:59:34;;;;;;;;;13.00;13.00;;;;;-146.80;100.00;64830.25;5134054;27;45800;-79
2022/09/06 07:01:59;;;;;;;;;17.50;17.00;;;;;-146.80;100.00;64830.25;5139288;27;45345;-74
2022/09/06 07:04:24;;;;;;;;;12.75;12.75;;;;;-146.80;100.00;64830.25;5123287;27;45446;-76
2022/09/06 07:06:52;;;;;;;;;18.00;18.00;;;;;-146.80;100.00;64830.25;5125261;27;48941;-76
2022/09/06 07:09:18;;;;;;;;;13.50;13.50;;;;;-146.80;100.00;64830.25;5122569;27;46439;-79
2022/09/06 07:11:45;;;;;;;;;9.75;9.75;;;;;-146.80;100.00;64830.25;5121364;27;45370;-75
2022/09/06 07:14:10;;;;;;;;;11.00;11.00;;;;;-146.80;100.00;64830.25;5132178;27;46066;-75
2022/09/06 07:16:36;;;;;;;;;15.75;15.75;;;;;-146.80;100.00;64830.25;5129107;27;45672;-71
2022/09/06 07:19:01;;;;;;;;;14.25;14.25;;;;;-146.80;100.00;64830.25;5138687;27;45524;-69
2022/09/06 07:21:27;;;;;;;;;15.50;15.50;;;;;-146.80;100.00;64830.25;5137933;27;45327;-74
2022/09/06 07:23:53;;;;;;;;;20.50;20.50;;;;;-146.80;100.00;64830.25;5125508;27;45638;-69
2022/09/06 07:26:21;;;;;;;;;15.75;15.75;;;;;-146.80;100.00;64830.25;5122687;27;45538;-69
2022/09/06 07:28:47;;;;;;;;;16.50;16.50;;;;;-146.80;100.00;64830.25;5117504;27;45428;-72
2022/09/06 07:31:13;;;;;;;;;16.50;16.50;;;;;-146.80;100.00;64830.25;5117830;27;45398;-69
2022/09/06 07:33:39;;;;;;;;;13.25;13.25;;;;;-146.80;100.00;64830.25;5101124;27;45310;-71
2022/09/06 07:36:06;;;;;;;;;12.75;12.75;;;;;-146.80;100.00;64830.25;5123578;27;45533;-72
2022/09/06 07:38:33;;;;;;;;;13.25;13.25;;;;;-146.80;100.00;64830.25;5119474;27;45659;-79
2022/09/06 07:41:01;;;;;;;;;12.25;12.25;;;;;-146.80;100.00;64830.25;5124226;27;45393;-79
2022/09/06 07:43:27;;;;;;;;;11.25;11.25;;;;;-146.80;100.00;64830.25;5126949;27;45342;-79
2022/09/06 07:46:00;;;;;;;;;15.25;15.25;;;;;-146.80;100.00;64830.25;5103441;27;45358;-71
2022/09/06 07:48:31;;;;;;;;;33.75;31.25;;;;;-146.80;100.00;64830.25;5118052;27;45413;-69
2022/09/06 07:51:11;;;;;;;;;8.00;8.00;;;;;-146.80;100.00;64830.25;5118666;27;45470;-73
2022/09/06 07:53:39;;;;;;;;;8.50;8.50;;;;;-146.80;100.00;64830.25;5102485;27;45421;-74
2022/09/06 07:56:07;;;;;;;;;6.00;6.00;;;;;-146.80;100.00;64830.25;5125363;27;45538;-73
2022/09/06 07:58:33;;;;;;;;;9.25;9.25;;;;;-146.80;100.00;64830.25;5125843;27;45160;-75
2022/09/06 08:01:23;;;;;;;;;9.00;9.00;;;;;-146.80;100.00;64830.25;5124578;27;45360;-73
2022/09/06 08:03:49;;;;;;;;;8.25;8.25;;;;;-146.80;100.00;64830.25;5123040;27;45285;-78
2022/09/06 08:06:14;;;;;;;;;7.25;7.25;;;;;-146.80;100.00;64830.25;5121627;27;45293;-72
2022/09/06 08:08:40;;;;;;;;;10.25;10.25;;;;;-146.80;100.00;64830.25;5101844;27;47178;-77
2022/09/06 08:11:06;;;;;;;;;8.75;8.75;;;;;-146.80;100.00;64830.25;5119596;27;45259;-70
2022/09/06 08:13:35;;;;;;;;;9.00;9.00;;;;;-146.80;100.00;64830.25;5118579;27;45504;-76
2022/09/06 08:16:03;;;;;;;;;8.75;8.75;;;;;-146.80;100.00;64830.25;5117809;27;45388;-70
2022/09/06 08:18:29;;;;;;;;;8.75;8.75;;;;;-146.80;100.00;64830.25;5117448;27;45238;-69
2022/09/06 08:20:54;;;;;;;;;8.50;8.50;;;;;-146.80;100.00;64830.25;5117470;27;45329;-71
2022/09/06 08:23:20;;;;;;;;;9.25;9.25;;;;;-146.80;100.00;64830.25;5119211;27;45505;-73
2022/09/06 08:25:56;;;;;;;;;9.00;9.00;;;;;-146.80;100.00;64830.25;5117570;27;45361;-74
2022/09/06 08:28:21;;;;;;;;;7.50;7.50;;;;;-146.80;100.00;64830.25;5118939;27;46457;-71
2022/09/06 08:30:47;;;;;;;;;6.25;6.25;;;;;-146.80;100.00;64830.25;5118470;27;45232;-75
2022/09/06 08:33:12;;;;;;;;;5.50;5.50;;;;;-146.80;100.00;64830.25;5121371;27;45231;-73
2022/09/06 08:35:37;;;;;;;;;6.00;6.00;;;;;-146.80;100.00;64830.25;5108033;27;45307;-68
2022/09/06 08:38:04;;;;;;;;;7.50;7.50;;;;;-146.80;100.00;64830.25;5119834;27;45591;-74
2022/09/06 08:40:30;;;;;;;;;5.50;5.50;;;;;-146.80;100.00;64830.25;5120152;27;45271;-70
2022/09/06 08:42:56;;;;;;;;;7.25;7.25;;;;;-146.80;100.00;64830.25;5124207;27;45375;-80
2022/09/06 08:45:23;;;;;;;;;6.25;6.25;;;;;-146.80;100.00;64830.25;5126997;27;45502;-76
2022/09/06 08:47:51;;;;;;;;;8.50;8.50;;;;;-146.80;100.00;64830.25;5123422;27;45409;-68
2022/09/06 08:50:17;;;;;;;;;4.50;4.50;;;;;-146.80;100.00;64830.25;5120939;27;45245;-71
2022/09/06 08:53:18;;;;;;;;;6.00;6.00;;;;;-146.80;100.00;64830.25;5119263;27;45166;-69
2022/09/06 08:56:12;;;;;;;;;3.50;3.50;;;;;-146.80;100.00;64830.25;5039440;28;45470;-69
2022/09/06 08:59:10;;;;;;;;;4.75;4.75;;;;;-146.80;100.00;64830.25;5116937;27;45326;-69
2022/09/06 09:02:06;;;;;;;;;3.75;3.75;;;;;-146.80;100.00;64830.25;5117435;27;45199;-70
2022/09/06 09:04:33;;;;;;;;;6.50;6.50;;;;;-146.80;100.00;64830.25;5117326;27;45177;-69
2022/09/06 09:07:16;;;;;;;;;8.00;8.00;;;;;-146.80;100.00;64830.25;5119516;27;45495;-68
2022/09/06 09:09:42;;;;;;;;;10.00;10.00;;;;;-146.80;100.00;64830.25;5120870;27;46456;-75
2022/09/06 09:12:21;;;;;;;;;12.25;10.75;;;;;-146.80;100.00;64830.25;5123894;27;45200;-75
2022/09/06 09:15:03;;;;;;;;;7.50;7.50;;;;;-146.80;100.00;64830.25;5124022;27;45484;-71
2022/09/06 09:17:31;;;;;;;;;7.00;7.00;;;;;-146.80;100.00;64830.25;5121342;27;45937;-79
2022/09/06 09:19:56;;;;;;;;;6.50;6.50;;;;;-146.80;100.00;64830.25;5120838;27;46404;-74
2022/09/06 09:22:24;;;;;;;;;9.75;9.75;;;;;-146.80;100.00;64830.25;5121080;27;45243;-75
2022/09/06 09:24:51;;;;;;;;;7.25;7.25;;;;;-146.80;100.00;64830.25;5121455;27;45298;-73
2022/09/06 09:27:21;;;;;;;;;3.50;3.50;;;;;-146.80;100.00;64830.25;5121351;27;45660;-71
2022/09/06 09:29:53;;;;;;;;;3.00;3.00;;;;;-146.80;100.00;64830.25;5103261;27;46265;-75
2022/09/06 09:32:46;;;;;;;;;4.00;4.00;;;;;-146.80;100.00;64830.25;5103247;27;45427;-74
2022/09/06 09:35:36;;;;;;;;;7.75;7.75;;;;;-146.80;100.00;64830.25;5122921;27;45412;-71
2022/09/06 09:38:06;;;;;;;;;5.00;5.00;;;;;-146.80;100.00;64830.25;5106223;27;45467;-71
2022/09/06 09:40:55;;;;;;;;;6.00;6.00;;;;;-146.80;100.00;64830.25;5129596;27;45248;-70
2022/09/06 09:43:24;;;;;;;;;5.50;5.50;;;;;-146.80;100.00;64830.25;5125179;27;45301;-69
2022/09/06 09:46:08;;;;;;;;;4.00;4.00;;;;;-146.80;100.00;64830.25;5125198;27;45302;-77
2022/09/06 09:48:34;;;;;;;;;7.50;7.50;;;;;-146.80;100.00;64830.25;5121578;27;45249;-78
2022/09/06 09:51:23;;;;;;;;;4.00;4.00;;;;;-146.80;100.00;64830.25;5103427;27;45392;-76
2022/09/06 09:53:57;;;;;;;;;9.50;9.50;;;;;-146.80;100.00;64830.25;5122620;27;45234;-78
2022/09/06 09:56:38;;;;;;;;;3.00;3.00;;;;;-146.80;100.00;64830.25;5110979;27;45320;-69
2022/09/06 09:59:14;;;;;;;;;6.00;6.00;;;;;-146.80;100.00;64830.25;5105776;27;45619;-73
2022/09/06 10:01:40;;;;;;;;;14.25;14.25;;;;;-146.80;100.00;64830.25;5121540;27;45667;-80
2022/09/06 10:04:08;;;;;;;;;11.00;11.00;;;;;-146.80;100.00;64830.25;5121504;27;45361;-77
2022/09/06 10:06:34;;;;;;;;;5.00;5.00;;;;;-146.80;100.00;64830.25;5123892;27;45418;-72
2022/09/06 10:09:18;;;;;;;;;4.75;4.75;;;;;-146.80;100.00;64830.25;5121981;27;45253;-75
2022/09/06 10:11:57;;;;;;;;;5.00;5.00;;;;;-146.80;100.00;64830.25;5121773;27;46108;-77
2022/09/06 10:14:28;;;;;;;;;8.00;8.00;;;;;-146.80;100.00;64830.25;5122067;27;45336;-77
2022/09/06 10:16:55;;;;;;;;;8.00;8.00;;;;;-146.80;100.00;64830.25;5124486;27;45393;-75
2022/09/06 10:19:36;;;;;;;;;9.50;9.50;;;;;-146.80;100.00;64830.25;5126306;27;45264;-76
2022/09/06 10:22:29;;;;;;;;;7.00;7.00;;;;;-146.80;100.00;64830.25;5104465;27;45707;-79
2022/09/06 10:25:10;;;;;;;;;15.50;15.00;;;;;-146.80;100.00;64830.25;5121438;27;45165;-73
2022/09/06 10:27:48;;;;;;;;;9.75;9.75;;;;;-146.80;100.00;64830.25;5124077;27;45385;-78
2022/09/06 10:30:14;;;;;;;;;13.50;13.50;;;;;-146.80;100.00;64830.25;5139710;27;45598;-74
2022/09/06 10:32:47;;;;;;;;;11.25;10.75;;;;;-146.80;100.00;64830.25;5141299;27;45725;-75
2022/09/06 10:35:18;;;;;;;;;11.00;11.00;;;;;-146.80;100.00;64830.25;5142284;27;45418;-81
2022/09/06 10:38:19;;;;;;;;;5.75;5.75;;;;;-146.80;100.00;64830.25;5142433;27;45569;-73
2022/09/06 10:41:07;;;;;;;;;6.00;6.00;;;;;-146.80;100.00;64830.25;5125757;27;45297;-71
2022/09/06 10:44:07;;;;;;;;;5.50;5.50;;;;;-146.80;100.00;64830.25;5126357;27;47584;-79
2022/09/06 10:46:35;;;;;;;;;6.00;6.00;;;;;-146.80;100.00;64830.25;5121196;27;45586;-82
2022/09/06 10:49:00;;;;;;;;;11.00;11.00;;;;;-146.80;100.00;64830.25;5147134;27;45258;-79
2022/09/06 10:51:51;;;;;;;;;17.75;17.75;;;;;-146.80;100.00;64830.25;5146405;27;45283;-83
2022/09/06 10:54:21;;;;;;;;;10.00;10.00;;;;;-146.80;100.00;64830.25;5146122;27;45561;-71
2022/09/06 10:56:59;;;;;;;;;12.00;11.75;;;;;-146.80;100.00;64830.25;5144217;27;45355;-71
2022/09/06 10:59:32;;;;;;;;;17.50;17.50;;;;;-146.80;100.00;64830.25;5122691;27;45379;-69
2022/09/06 11:02:06;;;;;;;;;9.50;9.50;;;;;-146.80;100.00;64830.25;5127840;27;45308;-70
2022/09/06 11:04:37;;;;;;;;;8.25;8.25;;;;;-146.80;100.00;64830.25;5146435;27;46346;-71
2022/09/06 11:07:27;;;;;;;;;13.00;13.00;;;;;-146.80;100.00;64830.25;5126356;27;45448;-69
2022/09/06 11:10:13;;;;;;;;;10.00;10.00;;;;;-146.80;100.00;64830.25;5125111;27;45271;-70
2022/09/06 11:12:59;;;;;;;;;11.25;11.25;;;;;-146.80;100.00;64830.25;5143463;27;45457;-75